createdAt,value
2023-10-08T00:00:57.209Z,54.23
2023-10-08T00:03:24.069Z,54.35
2023-10-08T00:05:51.133Z,54.30
2023-10-08T00:08:18.342Z,54.44
2023-10-08T00:10:46.290Z,54.54
2023-10-08T00:13:14.344Z,54.37
2023-10-08T00:15:58.888Z,54.48
2023-10-08T00:18:25.439Z,54.47
2023-10-08T00:21:24.574Z,54.41
2023-10-08T00:23:53.534Z,54.35
2023-10-08T00:26:28.555Z,54.45
2023-10-08T00:28:57.710Z,54.47
2023-10-08T00:31:39.267Z,54.28
2023-10-08T00:34:15.358Z,54.35
2023-10-08T00:36:44.835Z,54.53
2023-10-08T00:39:15.782Z,54.52
2023-10-08T00:41:44.338Z,54.58
2023-10-08T00:44:17.223Z,54.37
2023-10-08T00:46:49.204Z,54.54
2023-10-08T00:49:23.583Z,54.43
2023-10-08T00:52:07.428Z,54.65
2023-10-08T00:54:34.307Z,54.54
2023-10-08T00:57:05.345Z,54.67
2023-10-08T00:59:45.694Z,54.46
2023-10-08T01:02:16.031Z,54.68
2023-10-08T01:04:45.318Z,54.43
2023-10-08T01:07:16.792Z,54.61
2023-10-08T01:09:44.367Z,54.41
2023-10-08T01:12:22.398Z,54.61
2023-10-08T01:14:54.849Z,54.40
2023-10-08T01:17:26.721Z,54.45
2023-10-08T01:20:13.307Z,54.33
2023-10-08T01:22:41.633Z,54.41
2023-10-08T01:25:11.445Z,54.40
2023-10-08T01:27:38.832Z,54.45
2023-10-08T01:30:16.325Z,54.52
2023-10-08T01:32:44.730Z,54.51
2023-10-08T01:35:37.914Z,54.61
2023-10-08T01:38:04.943Z,54.51
2023-10-08T01:40:32.011Z,54.40
2023-10-08T01:43:01.412Z,54.41
2023-10-08T01:45:27.938Z,54.42
2023-10-08T01:47:56.367Z,54.47
2023-10-08T01:50:23.393Z,54.42
2023-10-08T01:52:50.530Z,54.54
2023-10-08T01:55:20.839Z,54.39
2023-10-08T01:57:48.211Z,54.54
2023-10-08T02:00:15.921Z,54.59
2023-10-08T02:02:42.683Z,54.52
2023-10-08T02:05:09.486Z,54.44
2023-10-08T02:07:36.095Z,54.71
2023-10-08T02:10:02.788Z,54.67
2023-10-08T02:12:29.498Z,54.65
2023-10-08T02:14:56.073Z,54.52
2023-10-08T02:17:23.932Z,54.47
2023-10-08T02:19:50.663Z,54.74
2023-10-08T02:22:17.224Z,54.72
2023-10-08T02:24:44.238Z,54.65
2023-10-08T02:27:11.649Z,54.74
2023-10-08T02:29:38.316Z,54.77
2023-10-08T02:32:05.978Z,54.61
2023-10-08T02:34:32.504Z,54.60
2023-10-08T02:36:59.046Z,54.43
2023-10-08T02:39:28.792Z,54.49
2023-10-08T02:41:58.062Z,54.68
2023-10-08T02:44:25.016Z,54.61
2023-10-08T02:46:52.578Z,54.58
2023-10-08T02:49:24.180Z,54.53
2023-10-08T02:51:55.920Z,54.79
2023-10-08T02:54:25.858Z,54.32
2023-10-08T02:56:56.572Z,54.51
2023-10-08T02:59:23.602Z,54.69
2023-10-08T03:01:51.193Z,54.39
2023-10-08T03:04:20.641Z,54.49
2023-10-08T03:06:50.472Z,54.78
2023-10-08T03:09:27.673Z,54.65
2023-10-08T03:11:54.818Z,54.77
2023-10-08T03:14:24.334Z,54.58
2023-10-08T03:16:54.539Z,54.76
2023-10-08T03:19:23.381Z,54.62
2023-10-08T03:21:57.647Z,54.61
2023-10-08T03:24:30.627Z,54.87
2023-10-08T03:27:07.838Z,54.67
2023-10-08T03:29:41.851Z,54.71
2023-10-08T03:32:19.073Z,54.83
2023-10-08T03:34:47.655Z,54.81
2023-10-08T03:37:23.386Z,54.66
2023-10-08T03:40:02.119Z,54.57
2023-10-08T03:42:35.978Z,54.61
2023-10-08T03:45:11.452Z,54.72
2023-10-08T03:47:39.410Z,54.81
2023-10-08T03:50:08.812Z,54.74
2023-10-08T03:52:38.231Z,54.64
2023-10-08T03:55:19.659Z,54.62
2023-10-08T03:57:58.139Z,54.74
2023-10-08T04:00:32.543Z,54.79
2023-10-08T04:03:06.852Z,54.79
2023-10-08T04:05:34.402Z,54.75
2023-10-08T04:08:00.968Z,54.63
2023-10-08T04:10:52.822Z,54.72
2023-10-08T04:13:19.638Z,54.69
2023-10-08T04:15:46.201Z,54.64
2023-10-08T04:18:14.900Z,54.60
2023-10-08T04:21:00.304Z,54.72
2023-10-08T04:23:27.386Z,54.57
2023-10-08T04:25:57.099Z,54.63
2023-10-08T04:28:29.654Z,54.76
2023-10-08T04:31:02.191Z,54.59
2023-10-08T04:33:35.225Z,54.68
2023-10-08T04:36:02.877Z,54.72
2023-10-08T04:38:30.127Z,54.72
2023-10-08T04:41:03.026Z,54.80
2023-10-08T04:43:31.811Z,54.68
2023-10-08T04:45:59.970Z,55.02
2023-10-08T04:48:30.884Z,54.79
2023-10-08T04:51:00.360Z,54.93
2023-10-08T04:53:38.241Z,54.99
2023-10-08T04:56:07.721Z,54.89
2023-10-08T04:58:37.619Z,54.95
2023-10-08T05:01:30.759Z,54.89
2023-10-08T05:03:58.340Z,54.74
2023-10-08T05:06:38.803Z,54.87
2023-10-08T05:09:13.004Z,54.94
2023-10-08T05:11:51.920Z,54.98
2023-10-08T05:14:35.937Z,54.89
2023-10-08T05:17:12.749Z,54.79
2023-10-08T05:19:41.158Z,54.74
2023-10-08T05:22:42.972Z,54.87
2023-10-08T05:25:29.933Z,54.82
2023-10-08T05:27:56.490Z,54.62
2023-10-08T05:30:54.416Z,54.72
2023-10-08T05:33:29.435Z,54.82
2023-10-08T05:36:03.690Z,54.66
2023-10-08T05:38:31.812Z,54.66
2023-10-08T05:40:59.792Z,54.65
2023-10-08T05:43:39.486Z,54.89
2023-10-08T05:46:25.866Z,54.79
2023-10-08T05:49:09.708Z,54.81
2023-10-08T05:51:47.753Z,54.90
2023-10-08T05:54:28.453Z,54.80
2023-10-08T05:57:11.082Z,54.73
2023-10-08T05:59:53.767Z,54.65
2023-10-08T06:02:47.416Z,54.82
2023-10-08T06:05:14.683Z,54.82
2023-10-08T06:07:55.313Z,54.83
2023-10-08T06:10:31.311Z,54.80
2023-10-08T06:13:17.899Z,54.84
2023-10-08T06:15:47.540Z,54.66
2023-10-08T06:18:15.759Z,54.86
2023-10-08T06:20:46.310Z,54.84
2023-10-08T06:23:20.210Z,54.99
2023-10-08T06:25:48.234Z,54.77
2023-10-08T06:28:16.956Z,54.74
2023-10-08T06:30:46.607Z,54.86
2023-10-08T06:33:15.019Z,54.92
2023-10-08T06:35:45.730Z,54.93
2023-10-08T06:38:16.128Z,54.90
2023-10-08T06:40:44.162Z,54.94
2023-10-08T06:43:18.139Z,54.79
2023-10-08T06:45:47.745Z,54.91
2023-10-08T06:48:21.590Z,55.03
2023-10-08T06:50:50.099Z,54.90
2023-10-08T06:53:19.345Z,54.95
2023-10-08T06:55:49.118Z,54.99
2023-10-08T06:58:15.978Z,54.73
2023-10-08T07:00:51.241Z,54.82
2023-10-08T07:03:21.878Z,54.89
2023-10-08T07:06:00.715Z,54.72
2023-10-08T07:08:36.517Z,54.80
2023-10-08T07:11:07.845Z,54.66
2023-10-08T07:13:37.134Z,54.80
2023-10-08T07:16:05.454Z,54.97
2023-10-08T07:18:35.178Z,54.90
2023-10-08T07:21:13.021Z,54.83
2023-10-08T07:23:57.499Z,54.79
2023-10-08T07:26:26.694Z,54.79
2023-10-08T07:28:54.267Z,54.83
2023-10-08T07:31:23.628Z,54.86
2023-10-08T07:33:57.603Z,54.99
2023-10-08T07:36:27.910Z,54.99
2023-10-08T07:38:55.093Z,54.83
2023-10-08T07:41:21.798Z,54.90
2023-10-08T07:43:59.539Z,54.79
2023-10-08T07:46:27.618Z,54.60
2023-10-08T07:48:55.443Z,54.86
2023-10-08T07:51:23.268Z,54.97
2023-10-08T07:53:57.328Z,54.87
2023-10-08T07:56:25.372Z,55.05
2023-10-08T07:58:58.019Z,55.04
2023-10-08T08:01:26.327Z,55.11
2023-10-08T08:03:53.178Z,55.07
2023-10-08T08:06:19.855Z,54.86
2023-10-08T08:08:46.476Z,55.00
2023-10-08T08:11:13.134Z,54.98
2023-10-08T08:13:45.930Z,55.01
2023-10-08T08:16:21.177Z,55.10
2023-10-08T08:18:58.586Z,54.88
2023-10-08T08:21:25.161Z,54.90
2023-10-08T08:23:51.807Z,54.77
2023-10-08T08:26:31.138Z,55.04
2023-10-08T08:29:01.099Z,55.04
2023-10-08T08:31:28.499Z,54.80
2023-10-08T08:33:57.670Z,54.81
2023-10-08T08:36:25.190Z,55.07
2023-10-08T08:38:52.378Z,55.09
2023-10-08T08:41:19.240Z,55.15
2023-10-08T08:43:50.789Z,55.04
2023-10-08T08:46:17.481Z,55.07
2023-10-08T08:48:48.080Z,54.88
2023-10-08T08:51:14.736Z,55.00
2023-10-08T08:53:42.556Z,54.82
2023-10-08T08:56:10.858Z,55.15
2023-10-08T08:58:39.183Z,55.07
2023-10-08T09:01:10.660Z,55.02
2023-10-08T09:03:38.533Z,54.96
2023-10-08T09:06:05.822Z,55.09
2023-10-08T09:08:36.936Z,55.05
2023-10-08T09:11:05.405Z,54.94
2023-10-08T09:13:34.118Z,55.10
2023-10-08T09:16:14.949Z,55.18
2023-10-08T09:18:51.348Z,54.99
2023-10-08T09:21:23.410Z,55.04
2023-10-08T09:23:51.823Z,55.00
2023-10-08T09:26:19.825Z,55.04
2023-10-08T09:28:50.685Z,55.16
2023-10-08T09:31:18.731Z,55.24
2023-10-08T09:33:55.772Z,55.32
2023-10-08T09:36:32.388Z,55.19
2023-10-08T09:39:01.931Z,55.37
2023-10-08T09:41:32.927Z,55.18
2023-10-08T09:44:00.249Z,55.21
2023-10-08T09:46:34.594Z,55.29
2023-10-08T09:49:02.725Z,55.24
2023-10-08T09:51:33.958Z,54.93
2023-10-08T09:54:15.298Z,54.85
2023-10-08T09:56:44.456Z,54.84
2023-10-08T09:59:11.699Z,54.63
2023-10-08T10:01:43.741Z,54.53
2023-10-08T10:04:12.405Z,54.71
2023-10-08T10:06:41.089Z,54.60
2023-10-08T10:09:16.995Z,54.52
2023-10-08T10:11:54.441Z,54.64
2023-10-08T10:14:25.977Z,54.62
2023-10-08T10:17:28.005Z,54.60
2023-10-08T10:20:04.499Z,54.45
2023-10-08T10:22:35.462Z,54.46
2023-10-08T10:25:16.162Z,54.18
2023-10-08T10:28:08.950Z,54.32
2023-10-08T10:30:35.742Z,54.28
2023-10-08T10:33:03.188Z,54.40
2023-10-08T10:35:30.277Z,54.29
2023-10-08T10:38:04.674Z,54.62
2023-10-08T10:40:40.722Z,54.49
2023-10-08T10:43:08.317Z,54.47
2023-10-08T10:45:37.974Z,54.38
2023-10-08T10:48:37.245Z,54.67
2023-10-08T10:51:07.112Z,54.45
2023-10-08T10:53:57.901Z,54.44
2023-10-08T10:56:40.991Z,54.32
2023-10-08T10:59:28.040Z,54.27
2023-10-08T11:02:07.618Z,54.19
2023-10-08T11:04:46.631Z,54.37
2023-10-08T11:07:13.621Z,54.38
2023-10-08T11:09:40.356Z,54.59
2023-10-08T11:12:12.606Z,54.52
2023-10-08T11:14:43.174Z,54.37
2023-10-08T11:17:18.528Z,54.40
2023-10-08T11:19:49.020Z,54.40
2023-10-08T11:22:19.684Z,54.39
2023-10-08T11:24:50.036Z,54.36
2023-10-08T11:27:37.082Z,54.11
2023-10-08T11:30:12.057Z,54.32
2023-10-08T11:32:39.896Z,54.21
2023-10-08T11:35:17.288Z,54.39
2023-10-08T11:37:52.292Z,54.41
2023-10-08T11:40:45.152Z,54.36
2023-10-08T11:43:17.019Z,54.31
2023-10-08T11:45:49.458Z,54.27
2023-10-08T11:48:23.266Z,54.66
2023-10-08T11:50:51.987Z,54.37
2023-10-08T11:53:20.375Z,54.33
2023-10-08T11:55:49.199Z,54.85
2023-10-08T11:58:19.104Z,54.55
2023-10-08T12:00:47.103Z,54.24
2023-10-08T12:03:20.666Z,54.23
2023-10-08T12:05:49.151Z,54.51
2023-10-08T12:08:17.427Z,54.45
2023-10-08T12:10:48.337Z,54.40
2023-10-08T12:13:19.331Z,54.44
2023-10-08T12:15:48.530Z,54.15
2023-10-08T12:18:28.005Z,54.19
2023-10-08T12:20:56.410Z,54.22
2023-10-08T12:23:26.472Z,54.25
2023-10-08T12:25:57.324Z,54.00
2023-10-08T12:28:25.034Z,53.99
2023-10-08T12:30:54.823Z,54.65
2023-10-08T12:33:21.720Z,54.39
2023-10-08T12:35:48.744Z,54.25
2023-10-08T12:38:16.050Z,54.22
2023-10-08T12:40:48.847Z,54.14
2023-10-08T12:43:20.445Z,54.15
2023-10-08T12:45:53.324Z,54.13
2023-10-08T12:48:29.166Z,54.11
2023-10-08T12:50:59.461Z,53.91
2023-10-08T12:53:37.412Z,54.38
2023-10-08T12:56:08.555Z,54.48
2023-10-08T12:58:45.730Z,54.32
2023-10-08T13:01:12.637Z,54.28
2023-10-08T13:03:43.057Z,54.35
2023-10-08T13:06:22.848Z,54.25
2023-10-08T13:08:54.122Z,54.23
2023-10-08T13:11:23.651Z,54.23
2023-10-08T13:13:54.832Z,54.88
2023-10-08T13:16:24.542Z,54.91
2023-10-08T13:18:52.124Z,54.56
2023-10-08T13:21:25.951Z,54.54
2023-10-08T13:23:53.706Z,54.55
2023-10-08T13:26:23.950Z,54.57
2023-10-08T13:28:50.616Z,54.43
2023-10-08T13:31:18.869Z,54.50
2023-10-08T13:33:50.017Z,54.39
2023-10-08T13:36:19.176Z,54.53
2023-10-08T13:38:50.063Z,54.67
2023-10-08T13:41:17.273Z,54.75
2023-10-08T13:43:47.883Z,54.39
2023-10-08T13:46:19.278Z,54.52
2023-10-08T13:48:49.388Z,54.60
2023-10-08T13:51:27.237Z,54.70
2023-10-08T13:54:01.102Z,54.68
2023-10-08T13:56:31.221Z,54.79
2023-10-08T13:59:05.257Z,54.86
2023-10-08T14:01:35.130Z,54.91
2023-10-08T14:04:09.251Z,54.98
2023-10-08T14:06:38.062Z,54.92
2023-10-08T14:09:13.568Z,54.95
2023-10-08T14:11:40.345Z,55.09
2023-10-08T14:14:12.673Z,55.20
2023-10-08T14:16:43.266Z,55.32
2023-10-08T14:19:14.707Z,55.24
2023-10-08T14:21:54.859Z,55.31
2023-10-08T14:24:21.833Z,55.11
2023-10-08T14:26:55.712Z,55.29
2023-10-08T14:29:25.670Z,55.16
2023-10-08T14:31:55.614Z,55.12
2023-10-08T14:34:42.201Z,55.21
2023-10-08T14:37:27.683Z,55.27
2023-10-08T14:40:13.031Z,55.23
2023-10-08T14:42:56.332Z,55.33
2023-10-08T14:45:27.964Z,55.36
2023-10-08T14:47:56.447Z,55.31
2023-10-08T14:50:24.660Z,55.14
2023-10-08T14:52:51.420Z,55.26
2023-10-08T14:55:18.093Z,55.32
2023-10-08T14:57:44.733Z,55.37
2023-10-08T15:00:11.970Z,55.17
2023-10-08T15:02:39.899Z,55.16
2023-10-08T15:05:07.341Z,55.10
2023-10-08T15:07:37.415Z,55.06
2023-10-08T15:10:04.368Z,55.11
2023-10-08T15:12:35.954Z,55.11
2023-10-08T15:15:13.751Z,54.93
2023-10-08T15:17:44.954Z,55.08
2023-10-08T15:20:15.704Z,55.28
2023-10-08T15:22:45.951Z,55.26
2023-10-08T15:25:14.276Z,55.22
2023-10-08T15:27:42.383Z,55.26
2023-10-08T15:30:13.184Z,55.54
2023-10-08T15:32:50.316Z,55.52
2023-10-08T15:35:25.416Z,55.66
2023-10-08T15:37:53.424Z,55.57
2023-10-08T15:40:21.065Z,55.48
2023-10-08T15:42:52.623Z,55.71
2023-10-08T15:45:23.373Z,55.74
2023-10-08T15:47:51.269Z,55.57
2023-10-08T15:50:22.487Z,55.60
2023-10-08T15:52:50.683Z,55.73
2023-10-08T15:55:19.366Z,55.73
2023-10-08T15:57:46.025Z,55.73
2023-10-08T16:00:13.157Z,56.00
2023-10-08T16:02:39.898Z,55.99
2023-10-08T16:05:09.227Z,55.98
2023-10-08T16:07:36.244Z,55.87
2023-10-08T16:10:03.333Z,56.06
2023-10-08T16:12:30.031Z,55.99
2023-10-08T16:14:56.642Z,55.95
2023-10-08T16:17:24.837Z,56.01
2023-10-08T16:19:52.567Z,56.14
2023-10-08T16:22:19.535Z,56.38
2023-10-08T16:24:46.118Z,56.55
2023-10-08T16:27:12.726Z,56.89
2023-10-08T16:29:39.331Z,56.87
2023-10-08T16:32:08.082Z,56.85
2023-10-08T16:34:38.121Z,56.71
2023-10-08T16:37:04.871Z,56.72
2023-10-08T16:39:32.226Z,56.58
2023-10-08T16:41:59.208Z,56.38
2023-10-08T16:44:25.954Z,56.24
2023-10-08T16:46:52.908Z,56.28
2023-10-08T16:49:22.043Z,56.89
2023-10-08T16:51:48.974Z,56.63
2023-10-08T16:54:16.881Z,56.73
2023-10-08T16:56:45.292Z,56.79
2023-10-08T16:59:15.563Z,56.76
2023-10-08T17:01:45.387Z,57.53
2023-10-08T17:04:13.810Z,57.70
2023-10-08T17:06:41.054Z,57.62
2023-10-08T17:09:15.717Z,57.55
2023-10-08T17:11:50.303Z,57.38
2023-10-08T17:14:19.110Z,57.24
2023-10-08T17:16:46.346Z,57.76
2023-10-08T17:19:13.322Z,57.58
2023-10-08T17:21:40.577Z,57.42
2023-10-08T17:24:10.806Z,57.61
2023-10-08T17:26:38.798Z,57.83
2023-10-08T17:29:09.346Z,58.03
2023-10-08T17:31:38.192Z,57.82
2023-10-08T17:34:07.036Z,57.60
2023-10-08T17:36:35.243Z,57.92
2023-10-08T17:39:10.010Z,58.05
2023-10-08T17:41:37.376Z,58.12
2023-10-08T17:44:05.039Z,57.97
2023-10-08T17:46:31.975Z,57.78
2023-10-08T17:48:59.308Z,58.24
2023-10-08T17:51:26.343Z,58.17
2023-10-08T17:53:53.305Z,58.02
2023-10-08T17:56:19.992Z,58.00
2023-10-08T17:58:47.352Z,57.67
2023-10-08T18:01:15.414Z,57.68
2023-10-08T18:03:45.594Z,57.43
2023-10-08T18:06:15.662Z,57.53
2023-10-08T18:08:50.736Z,57.45
2023-10-08T18:11:23.758Z,57.71
2023-10-08T18:13:51.481Z,57.66
2023-10-08T18:16:18.874Z,57.75
2023-10-08T18:18:46.442Z,57.75
2023-10-08T18:21:17.905Z,57.78
2023-10-08T18:23:47.921Z,58.05
2023-10-08T18:26:16.324Z,58.17
2023-10-08T18:28:45.053Z,58.12
2023-10-08T18:31:13.442Z,58.05
2023-10-08T18:33:42.278Z,58.79
2023-10-08T18:36:11.046Z,58.28
2023-10-08T18:38:40.515Z,58.11
2023-10-08T18:41:10.370Z,58.42
2023-10-08T18:43:37.524Z,58.49
2023-10-08T18:46:15.318Z,58.47
2023-10-08T18:48:42.955Z,58.35
2023-10-08T18:51:12.212Z,58.42
2023-10-08T18:53:41.866Z,58.50
2023-10-08T18:56:12.140Z,58.31
2023-10-08T18:58:40.006Z,58.49
2023-10-08T19:01:08.222Z,58.46
2023-10-08T19:03:37.827Z,58.47
2023-10-08T19:06:07.071Z,58.26
2023-10-08T19:08:37.321Z,58.63
2023-10-08T19:11:09.021Z,58.55
2023-10-08T19:13:43.581Z,58.48
2023-10-08T19:16:12.167Z,58.61
2023-10-08T19:18:42.688Z,58.74
2023-10-08T19:21:15.760Z,58.35
2023-10-08T19:23:42.451Z,58.37
2023-10-08T19:26:09.117Z,58.38
2023-10-08T19:28:36.592Z,58.33
2023-10-08T19:31:09.290Z,58.46
2023-10-08T19:33:36.315Z,58.18
2023-10-08T19:36:04.487Z,58.55
2023-10-08T19:38:31.370Z,58.46
2023-10-08T19:40:58.650Z,58.41
2023-10-08T19:43:25.275Z,58.88
2023-10-08T19:45:52.245Z,58.47
2023-10-08T19:48:19.513Z,58.68
2023-10-08T19:50:47.841Z,58.79
2023-10-08T19:53:15.952Z,58.75
2023-10-08T19:55:50.523Z,58.55
2023-10-08T19:58:17.688Z,58.58
2023-10-08T20:00:48.724Z,58.87
2023-10-08T20:03:15.913Z,58.83
2023-10-08T20:05:44.081Z,58.66
2023-10-08T20:08:14.151Z,58.98
2023-10-08T20:10:42.138Z,58.85
2023-10-08T20:13:10.549Z,58.77
2023-10-08T20:15:38.547Z,58.88
2023-10-08T20:18:09.045Z,58.82
2023-10-08T20:20:37.270Z,59.02
2023-10-08T20:23:06.567Z,58.92
2023-10-08T20:25:38.931Z,59.04
2023-10-08T20:28:07.141Z,58.99
2023-10-08T20:30:37.190Z,59.10
2023-10-08T20:33:11.122Z,58.88
2023-10-08T20:35:44.328Z,58.94
2023-10-08T20:38:14.398Z,59.15
2023-10-08T20:40:43.910Z,59.11
2023-10-08T20:43:11.765Z,59.02
2023-10-08T20:45:40.437Z,58.85
2023-10-08T20:48:13.240Z,59.13
2023-10-08T20:50:40.002Z,58.78
2023-10-08T20:53:06.674Z,59.12
2023-10-08T20:55:36.033Z,58.67
2023-10-08T20:58:03.010Z,59.03
2023-10-08T21:00:35.962Z,58.74
2023-10-08T21:03:09.322Z,58.93
2023-10-08T21:05:39.476Z,58.88
2023-10-08T21:08:09.747Z,58.82
2023-10-08T21:13:09.620Z,58.77
2023-10-08T21:15:37.372Z,58.70
2023-10-08T21:18:08.440Z,58.85
2023-10-08T21:20:35.229Z,58.75
2023-10-08T21:23:07.888Z,58.79
2023-10-08T21:25:34.852Z,58.90
2023-10-08T21:28:02.215Z,58.92
2023-10-08T21:30:29.498Z,58.63
2023-10-08T21:32:57.448Z,58.63
2023-10-08T21:35:24.644Z,58.64
2023-10-08T21:37:52.445Z,58.87
2023-10-08T21:40:21.616Z,58.81
2023-10-08T21:42:52.860Z,58.97
2023-10-08T21:45:20.453Z,58.54
2023-10-08T21:47:48.680Z,58.58
2023-10-08T21:50:17.736Z,58.72
2023-10-08T21:52:48.510Z,58.92
2023-10-08T21:55:19.551Z,58.84
2023-10-08T21:57:48.714Z,58.75
2023-10-08T22:00:22.467Z,58.60
2023-10-08T22:02:58.160Z,58.69
2023-10-08T22:05:30.669Z,58.54
2023-10-08T22:08:04.809Z,58.39
2023-10-08T22:10:34.839Z,58.60
2023-10-08T22:13:05.131Z,58.73
2023-10-08T22:15:31.884Z,58.66
2023-10-08T22:18:03.096Z,58.29
2023-10-08T22:20:39.537Z,58.48
2023-10-08T22:23:16.706Z,58.50
2023-10-08T22:25:48.373Z,58.49
2023-10-08T22:28:21.669Z,58.37
2023-10-08T22:30:51.565Z,58.18
2023-10-08T22:33:27.618Z,58.38
2023-10-08T22:35:59.038Z,58.17
2023-10-08T22:38:30.404Z,58.17
2023-10-08T22:40:57.334Z,58.30
2023-10-08T22:43:24.372Z,58.25
2023-10-08T22:45:52.277Z,58.24
2023-10-08T22:48:36.923Z,58.25
2023-10-08T22:51:10.890Z,58.11
2023-10-08T22:53:44.445Z,58.15
2023-10-08T22:56:12.071Z,57.92
2023-10-08T22:58:40.429Z,58.09
2023-10-08T23:01:16.021Z,57.74
2023-10-08T23:03:47.549Z,57.92
2023-10-08T23:06:16.353Z,57.89
2023-10-08T23:08:44.374Z,58.08
2023-10-08T23:11:16.085Z,57.77
2023-10-08T23:13:43.986Z,57.72
2023-10-08T23:16:15.807Z,57.86
2023-10-08T23:18:44.295Z,57.70
2023-10-08T23:21:12.905Z,57.64
2023-10-08T23:23:40.285Z,57.79
2023-10-08T23:26:11.326Z,57.47
2023-10-08T23:28:39.130Z,57.38
2023-10-08T23:31:11.807Z,57.51
2023-10-08T23:33:48.146Z,57.57
2023-10-08T23:36:17.243Z,57.54
2023-10-08T23:38:53.598Z,57.47
2023-10-08T23:41:24.942Z,57.29
2023-10-08T23:43:57.516Z,57.51
2023-10-08T23:46:33.176Z,57.15
2023-10-08T23:49:15.953Z,57.20
2023-10-08T23:51:43.381Z,57.18
2023-10-08T23:54:15.812Z,56.95
2023-10-08T23:56:46.463Z,57.12
2023-10-08T23:59:18.193Z,57.05
